East Mines, Pennsylvania
Current Conditions -  °F | °C
As of 8:35 AM on Wednesday 26 Nov 2014 (Local Time) from KHZL Reporting Station
Moderate Snow Moderate Snow  
Wind Chill: 32°   Ceiling: 600
Heat Index: 32°   Visibility: 0.5mi
Dew Point: 32°   Wind: 3mph
Humidity: 100%   Direction: 360°N
Pressure: 30.11"   Gusts: NA
Location:  40.7406°N, 76.2241°W
Report Text: KHZL 261335Z AUTO 36003KT 1/2SM SN OVC006 00/00 A3011 RMK AO2
Loading
Personal Weather Stations






























Interactive Weather Map New forecast layout! Learn more

10-Day Weather Forecast

Advertisements
Track Severe Weather on mobile